CheckWX is a tool to help pilots better visualize weather data.  It is not intended as a substitute for an official pre-flight weather briefing.

17:22:40 UTC

RPVM METAR
Mactan Cebu International Airport
Lapu-Lapu City, Philippines
Current

23 mins ago

RPVM 181700Z 22002KT 9999 FEW020 27/24 Q1009 RMK A2980
Observed
Jul-18 @ 17:00 UTC
Wind
  • 220° at 2 KTS
Visibility
10,000+ meters
Flight Rules
VFR
Cloud Levels
  • Few at 2,000' AGL
Temperature
27°C / 81°F
Dewpoint
24°C / 75°F
Heat Index
31°C / 87°F
Humidity
84%
Altimeter
29.79" Hg
Pressure
1008.92 hPa
Previous

1 hour ago

RPVM 181600Z 23003KT 9999 FEW020 27/24 Q1009 RMK A2980
Observed
Jul-18 @ 16:00 UTC
Wind
  • 230° at 3 KTS
Visibility
10,000+ meters
Flight Rules
VFR
Cloud Levels
  • Few at 2,000' AGL
Temperature
27°C / 81°F
Dewpoint
24°C / 75°F
Heat Index
31°C / 87°F
Humidity
84%
Altimeter
29.79" Hg
Pressure
1008.92 hPa
Previous

2 hours ago

RPVM 181500Z 22002KT 9999 FEW020 27/24 Q1010 RMK A2983
Observed
Jul-18 @ 15:00 UTC
Wind
  • 220° at 2 KTS
Visibility
10,000+ meters
Flight Rules
VFR
Cloud Levels
  • Few at 2,000' AGL
Temperature
27°C / 81°F
Dewpoint
24°C / 75°F
Heat Index
31°C / 87°F
Humidity
84%
Altimeter
29.82" Hg
Pressure
1009.92 hPa